Time;durP1;ratioP1;P1;durP2;ratioP2;P2;SDS_P1;SDS_P2;PMS_P1;PMS_P2;Temp;Humidity;BMP_temperature;BMP_pressure;BME280_temperature;BME280_humidity;BME280_pressure;Samples;Min_cycle;Max_cycle;Signal;HPM_P1;HPM_P2
2022/08/25 00:01:46;;;;;;;5.77;5.23;;;21.30;99.90;;;;;;5099588;28;20496;-51
2022/08/25 00:04:16;;;;;;;5.17;4.67;;;21.20;99.90;;;;;;5098775;28;20894;-56
2022/08/25 00:06:45;;;;;;;4.77;4.33;;;21.20;99.90;;;;;;5099035;28;20464;-52
2022/08/25 00:09:13;;;;;;;5.53;5.03;;;21.20;99.90;;;;;;5099100;28;20465;-52
2022/08/25 00:11:48;;;;;;;11.63;4.97;;;21.10;99.90;;;;;;5098775;28;20463;-50
2022/08/25 00:14:24;;;;;;;5.77;4.30;;;21.10;99.90;;;;;;5098651;28;20895;-51
2022/08/25 00:16:51;;;;;;;7.47;5.03;;;21.00;99.90;;;;;;5099361;28;20529;-53
2022/08/25 00:19:26;;;;;;;5.33;4.83;;;21.00;99.90;;;;;;5098668;28;20523;-49
2022/08/25 00:21:53;;;;;;;5.00;4.60;;;21.00;99.90;;;;;;5099343;28;20574;-48
2022/08/25 00:24:22;;;;;;;5.43;4.93;;;20.90;99.90;;;;;;5098573;28;20460;-51
2022/08/25 00:26:52;;;;;;;10.60;5.50;;;20.90;99.90;;;;;;5099506;28;20465;-53
2022/08/25 00:29:20;;;;;;;5.30;4.80;;;20.90;99.90;;;;;;5099123;28;20465;-52
2022/08/25 00:31:48;;;;;;;5.23;4.70;;;21.00;99.90;;;;;;5099772;28;20904;-54
2022/08/25 00:34:21;;;;;;;4.80;4.40;;;20.90;99.90;;;;;;5098788;28;20555;-51
2022/08/25 00:36:51;;;;;;;5.00;4.60;;;20.80;99.90;;;;;;5098229;28;20488;-50
2022/08/25 00:39:22;;;;;;;4.90;4.50;;;20.80;99.90;;;;;;5081053;28;20533;-51
2022/08/25 00:41:54;;;;;;;4.97;4.63;;;20.80;99.90;;;;;;5098581;28;20492;-54
2022/08/25 00:44:26;;;;;;;5.53;4.90;;;20.80;99.90;;;;;;5099136;28;20799;-53
2022/08/25 00:46:55;;;;;;;6.50;4.07;;;20.70;99.90;;;;;;5098466;28;20541;-50
2022/08/25 00:49:27;;;;;;;5.27;4.67;;;20.70;99.90;;;;;;5098826;28;20460;-49
2022/08/25 00:52:01;;;;;;;5.00;4.60;;;20.70;99.90;;;;;;5098716;28;20460;-51
2022/08/25 00:54:35;;;;;;;4.97;4.60;;;20.60;99.90;;;;;;5098552;28;20509;-48
2022/08/25 00:57:06;;;;;;;4.90;4.50;;;20.50;99.90;;;;;;5097848;28;20547;-50
2022/08/25 00:59:34;;;;;;;5.50;5.00;;;20.50;99.90;;;;;;5098840;28;20486;-51
2022/08/25 01:02:03;;;;;;;5.27;4.70;;;20.40;99.90;;;;;;5098916;28;20488;-50
2022/08/25 01:04:32;;;;;;;5.40;4.90;;;20.30;99.90;;;;;;5098260;28;20526;-51
2022/08/25 01:07:00;;;;;;;6.37;4.80;;;20.30;99.90;;;;;;5098006;28;20460;-48
2022/08/25 01:09:32;;;;;;;4.80;4.50;;;20.30;99.90;;;;;;5097599;28;20507;-49
2022/08/25 01:12:02;;;;;;;10.10;5.23;;;20.40;99.90;;;;;;5097628;28;20549;-49
2022/08/25 01:14:31;;;;;;;6.83;4.20;;;20.30;99.90;;;;;;5096938;28;20442;-48
2022/08/25 01:16:59;;;;;;;4.93;4.43;;;20.40;99.90;;;;;;5097754;28;20826;-47
2022/08/25 01:19:32;;;;;;;6.13;4.77;;;20.40;99.90;;;;;;5096652;28;20460;-49
2022/08/25 01:22:04;;;;;;;5.43;4.93;;;20.30;99.90;;;;;;5098123;28;20485;-49
2022/08/25 01:24:37;;;;;;;5.60;5.00;;;20.20;99.90;;;;;;5097626;28;20427;-48
2022/08/25 01:27:11;;;;;;;5.20;4.50;;;20.20;99.90;;;;;;5096625;28;20556;-48
2022/08/25 01:29:45;;;;;;;7.50;4.83;;;20.20;99.90;;;;;;5097909;28;20890;-53
2022/08/25 01:32:13;;;;;;;5.30;4.90;;;20.10;99.90;;;;;;5096300;28;20460;-53
2022/08/25 01:34:43;;;;;;;5.10;4.50;;;20.10;99.90;;;;;;5097577;28;20460;-49
2022/08/25 01:37:15;;;;;;;5.77;4.80;;;20.00;99.90;;;;;;5097474;28;20767;-47
2022/08/25 01:39:44;;;;;;;8.70;4.90;;;20.00;99.90;;;;;;5097964;28;20870;-49
2022/08/25 01:42:37;;;;;;;5.30;4.80;;;20.00;99.90;;;;;;5096580;28;20587;-55
2022/08/25 01:45:05;;;;;;;4.70;4.30;;;19.90;99.90;;;;;;5097670;28;20466;-50
2022/08/25 01:47:33;;;;;;;6.63;4.20;;;19.80;99.90;;;;;;5097315;28;20456;-54
2022/08/25 01:50:01;;;;;;;4.77;4.23;;;19.80;99.90;;;;;;5097697;28;20550;-52
2022/08/25 01:52:41;;;;;;;5.83;4.90;;;19.80;99.90;;;;;;5097729;28;20546;-51
2022/08/25 01:55:21;;;;;;;4.80;4.30;;;19.70;99.90;;;;;;5098136;28;20463;-53
2022/08/25 01:57:51;;;;;;;4.93;4.53;;;19.70;99.90;;;;;;5097297;28;20541;-49
2022/08/25 02:00:21;;;;;;;8.53;4.40;;;19.60;99.90;;;;;;5097730;28;20924;-51
2022/08/25 02:02:48;;;;;;;6.37;4.47;;;19.60;99.90;;;;;;5097107;28;20492;-51
2022/08/25 02:05:16;;;;;;;6.77;4.73;;;19.50;99.90;;;;;;5097308;28;20495;-51
2022/08/25 02:07:45;;;;;;;5.30;4.80;;;19.50;99.90;;;;;;5097350;28;20495;-51
2022/08/25 02:10:13;;;;;;;4.90;4.50;;;19.60;99.90;;;;;;5097285;28;20522;-50
2022/08/25 02:12:41;;;;;;;4.77;4.33;;;19.50;99.90;;;;;;5096717;28;20459;-53
2022/08/25 02:15:11;;;;;;;5.20;4.70;;;19.50;99.90;;;;;;5097561;28;20587;-50
2022/08/25 02:17:39;;;;;;;5.57;5.07;;;19.50;99.90;;;;;;5097862;28;20905;-53
2022/08/25 02:20:10;;;;;;;5.20;4.70;;;19.40;99.90;;;;;;5095931;28;20803;-51
2022/08/25 02:22:37;;;;;;;5.57;5.17;;;19.30;99.90;;;;;;5096664;28;20491;-49
2022/08/25 02:25:09;;;;;;;5.60;4.80;;;19.30;99.90;;;;;;5097208;28;20827;-51
2022/08/25 02:27:37;;;;;;;6.03;5.20;;;19.30;99.90;;;;;;5097780;28;20571;-52
2022/08/25 02:30:06;;;;;;;5.73;5.10;;;19.30;99.90;;;;;;5096510;28;20539;-48
2022/08/25 02:32:33;;;;;;;5.60;5.20;;;19.20;99.90;;;;;;5096303;28;20514;-50
2022/08/25 02:35:06;;;;;;;5.40;4.67;;;19.20;99.90;;;;;;5096498;28;20457;-50
2022/08/25 02:37:33;;;;;;;6.17;5.00;;;19.20;99.90;;;;;;5097418;28;20460;-54
2022/08/25 02:40:00;;;;;;;5.30;4.83;;;19.20;99.90;;;;;;5096667;28;20431;-50
2022/08/25 02:42:29;;;;;;;7.33;5.90;;;19.20;99.90;;;;;;5096722;28;20594;-50
2022/08/25 02:44:57;;;;;;;9.17;4.77;;;19.20;99.90;;;;;;5096646;28;20464;-51
2022/08/25 02:47:24;;;;;;;6.70;4.33;;;19.20;99.90;;;;;;5097116;28;20470;-50
2022/08/25 02:49:52;;;;;;;5.37;4.87;;;19.20;99.90;;;;;;5096835;28;20605;-55
2022/08/25 02:52:20;;;;;;;4.80;4.40;;;19.10;99.90;;;;;;5096779;28;20816;-54
2022/08/25 02:54:48;;;;;;;4.77;4.37;;;19.10;99.90;;;;;;5097162;28;20556;-54
2022/08/25 02:57:16;;;;;;;7.73;5.27;;;19.00;99.90;;;;;;5097335;28;20558;-50
2022/08/25 02:59:47;;;;;;;6.20;4.80;;;19.00;99.90;;;;;;5097297;28;20464;-48
2022/08/25 03:02:15;;;;;;;4.90;4.43;;;19.00;99.90;;;;;;5096471;28;20931;-52
2022/08/25 03:04:42;;;;;;;5.70;5.10;;;19.00;99.90;;;;;;5096953;28;20464;-49
2022/08/25 03:07:11;;;;;;;5.27;4.87;;;19.10;99.90;;;;;;5096787;28;20446;-48
2022/08/25 03:09:40;;;;;;;6.90;4.53;;;19.00;99.90;;;;;;5097398;28;20464;-49
2022/08/25 03:12:08;;;;;;;5.50;5.00;;;19.10;99.90;;;;;;5096205;28;20461;-48
2022/08/25 03:14:35;;;;;;;5.07;4.67;;;19.10;99.90;;;;;;5096370;28;20789;-53
2022/08/25 03:17:04;;;;;;;6.40;5.00;;;19.10;99.90;;;;;;5096672;28;20475;-52
2022/08/25 03:19:32;;;;;;;7.20;5.10;;;19.10;99.90;;;;;;5096883;28;20517;-49
2022/08/25 03:21:59;;;;;;;6.90;6.00;;;19.10;99.90;;;;;;5096428;28;20614;-52
2022/08/25 03:24:32;;;;;;;4.60;4.30;;;19.10;99.90;;;;;;5096498;28;20487;-54
2022/08/25 03:27:01;;;;;;;5.80;5.27;;;19.00;99.90;;;;;;5096198;28;20836;-48
2022/08/25 03:29:31;;;;;;;5.73;5.33;;;19.10;99.90;;;;;;5097044;28;20524;-48
2022/08/25 03:31:59;;;;;;;6.37;5.17;;;19.00;99.90;;;;;;5097584;28;20506;-48
2022/08/25 03:34:30;;;;;;;8.80;4.90;;;19.00;99.90;;;;;;5100307;28;20496;-47
2022/08/25 03:36:59;;;;;;;5.53;4.97;;;19.10;99.90;;;;;;5100096;28;20487;-49
2022/08/25 03:39:27;;;;;;;5.70;5.20;;;19.20;99.90;;;;;;5100216;28;20503;-50
2022/08/25 03:41:56;;;;;;;7.20;5.70;;;19.10;99.90;;;;;;5099719;28;20531;-47
2022/08/25 03:44:23;;;;;;;5.50;5.00;;;19.10;99.90;;;;;;5099854;28;20456;-48
2022/08/25 03:46:52;;;;;;;5.57;5.03;;;19.00;99.90;;;;;;5100167;28;20833;-51
2022/08/25 03:49:23;;;;;;;5.43;4.93;;;19.10;99.90;;;;;;5100109;28;20466;-52
2022/08/25 03:51:54;;;;;;;5.60;5.10;;;19.10;99.90;;;;;;5100233;28;20510;-54
2022/08/25 03:54:25;;;;;;;6.20;5.60;;;19.00;99.90;;;;;;5099455;28;20799;-53
2022/08/25 03:56:52;;;;;;;6.00;5.57;;;19.10;99.90;;;;;;5099907;28;20814;-49
2022/08/25 03:59:20;;;;;;;6.50;5.90;;;19.00;99.90;;;;;;5099909;28;20757;-52
2022/08/25 04:01:48;;;;;;;9.37;5.60;;;19.10;99.90;;;;;;5099653;28;20528;-52
2022/08/25 04:04:16;;;;;;;6.10;5.50;;;19.00;99.90;;;;;;5098992;28;20513;-50
2022/08/25 04:06:44;;;;;;;6.80;6.20;;;19.00;99.90;;;;;;5099044;28;20563;-51
2022/08/25 04:09:13;;;;;;;6.23;5.57;;;19.00;99.90;;;;;;5100128;28;20460;-50
2022/08/25 04:11:40;;;;;;;5.27;4.70;;;19.00;99.90;;;;;;5100042;28;20517;-48
2022/08/25 04:14:08;;;;;;;6.40;5.90;;;18.90;99.90;;;;;;5098878;28;20489;-53
2022/08/25 04:16:35;;;;;;;8.03;5.37;;;18.90;99.90;;;;;;5099558;28;20551;-53
2022/08/25 04:19:06;;;;;;;6.80;6.10;;;18.80;99.90;;;;;;5098913;28;20844;-48
2022/08/25 04:21:34;;;;;;;6.23;5.70;;;18.90;99.90;;;;;;5099439;28;20929;-48
2022/08/25 04:24:01;;;;;;;6.40;5.80;;;18.90;99.90;;;;;;5098875;28;20453;-51
2022/08/25 04:26:32;;;;;;;6.17;5.60;;;18.90;99.90;;;;;;5098754;28;20513;-49
2022/08/25 04:29:03;;;;;;;7.50;5.60;;;18.90;99.90;;;;;;5098984;28;20568;-52
2022/08/25 04:31:33;;;;;;;7.73;6.83;;;18.90;99.90;;;;;;5098988;28;20460;-48
2022/08/25 04:34:05;;;;;;;7.27;6.40;;;18.90;99.90;;;;;;5097652;28;20456;-49
2022/08/25 04:36:33;;;;;;;11.60;7.00;;;18.90;99.90;;;;;;5082265;28;20469;-52
2022/08/25 04:39:01;;;;;;;9.10;5.77;;;18.90;99.90;;;;;;5090272;28;20480;-52
2022/08/25 04:41:31;;;;;;;6.37;5.77;;;18.80;99.90;;;;;;5077955;28;20457;-49
2022/08/25 04:44:00;;;;;;;9.00;7.33;;;18.90;99.90;;;;;;5083337;28;20603;-48
2022/08/25 04:46:29;;;;;;;7.10;6.40;;;18.90;99.90;;;;;;5086310;28;20870;-49
2022/08/25 04:48:58;;;;;;;7.77;6.80;;;18.90;99.90;;;;;;5095067;28;20519;-50
2022/08/25 04:51:28;;;;;;;7.60;6.80;;;18.90;99.90;;;;;;5097081;28;20456;-52
2022/08/25 04:54:00;;;;;;;8.73;6.70;;;18.90;99.90;;;;;;5098169;28;20453;-52
2022/08/25 04:56:37;;;;;;;7.90;7.17;;;18.90;99.90;;;;;;5097725;28;20587;-49
2022/08/25 04:59:05;;;;;;;8.37;6.90;;;18.90;99.90;;;;;;5098241;28;20537;-48
2022/08/25 05:01:36;;;;;;;7.87;7.07;;;18.90;99.90;;;;;;5098051;28;21086;-51
2022/08/25 05:04:09;;;;;;;6.93;6.10;;;19.00;99.90;;;;;;5095853;28;20495;-49
2022/08/25 05:06:39;;;;;;;6.87;6.27;;;18.90;99.90;;;;;;5097044;28;20467;-53
2022/08/25 05:09:07;;;;;;;7.57;6.63;;;19.00;99.90;;;;;;5098065;28;20460;-50
2022/08/25 05:11:36;;;;;;;8.47;6.17;;;19.00;99.90;;;;;;5098234;28;20460;-53
2022/08/25 05:14:04;;;;;;;6.73;6.13;;;19.20;99.90;;;;;;5097446;28;20843;-50
2022/08/25 05:16:34;;;;;;;7.80;6.63;;;19.20;99.90;;;;;;5098190;28;20464;-47
2022/08/25 05:19:01;;;;;;;7.03;6.33;;;19.20;99.90;;;;;;5098241;28;20547;-48
2022/08/25 05:21:32;;;;;;;7.40;6.70;;;19.30;99.90;;;;;;5097457;28;20527;-49
2022/08/25 05:24:03;;;;;;;8.33;7.20;;;19.30;99.90;;;;;;5097586;28;20510;-49
2022/08/25 05:26:32;;;;;;;8.13;6.70;;;19.40;99.90;;;;;;5097534;28;20482;-47
2022/08/25 05:29:03;;;;;;;8.23;6.27;;;19.50;99.90;;;;;;5096794;28;20546;-48
2022/08/25 05:31:32;;;;;;;8.07;6.97;;;19.60;99.90;;;;;;5098179;28;20471;-49
2022/08/25 05:34:07;;;;;;;11.93;7.20;;;19.60;99.90;;;;;;5097037;28;20551;-51
2022/08/25 05:36:35;;;;;;;15.00;7.47;;;19.70;99.90;;;;;;5097430;28;20555;-54
2022/08/25 05:39:03;;;;;;;10.90;6.00;;;19.70;99.90;;;;;;5097585;28;20435;-55
2022/08/25 05:41:33;;;;;;;7.20;6.07;;;19.80;99.90;;;;;;5097445;28;20464;-47
2022/08/25 05:44:06;;;;;;;9.13;7.27;;;19.90;99.90;;;;;;5097392;28;20473;-48
2022/08/25 05:46:33;;;;;;;7.27;6.57;;;20.10;99.90;;;;;;5097323;28;20882;-51
2022/08/25 05:49:00;;;;;;;8.37;7.20;;;20.20;99.90;;;;;;5097097;28;20496;-48
2022/08/25 05:51:28;;;;;;;7.20;6.50;;;20.30;99.90;;;;;;5097215;28;20543;-49
2022/08/25 05:54:02;;;;;;;7.60;6.77;;;20.40;99.90;;;;;;5093372;28;20758;-47
2022/08/25 05:56:30;;;;;;;7.70;6.57;;;20.50;99.90;;;;;;5095273;28;20457;-50
2022/08/25 05:58:59;;;;;;;7.53;6.83;;;20.60;99.90;;;;;;5096102;28;20488;-54
2022/08/25 06:04:15;;;;;;;7.20;6.60;;;20.70;99.90;;;;;;5097047;28;20603;-54
2022/08/25 06:06:45;;;;;;;6.73;5.83;;;20.90;99.90;;;;;;5096148;28;20846;-53
2022/08/25 06:09:16;;;;;;;8.50;6.10;;;21.00;99.90;;;;;;5095948;28;20472;-52
2022/08/25 06:11:43;;;;;;;7.87;6.37;;;21.10;99.90;;;;;;5096764;28;20495;-48
2022/08/25 06:14:11;;;;;;;7.90;6.73;;;21.30;99.90;;;;;;5096454;28;20461;-48
2022/08/25 06:16:40;;;;;;;7.47;6.70;;;21.50;99.90;;;;;;5095487;28;20556;-49
2022/08/25 06:19:08;;;;;;;7.80;7.10;;;21.70;99.90;;;;;;5094550;28;20571;-54
2022/08/25 06:21:37;;;;;;;7.03;6.43;;;21.90;99.90;;;;;;5096524;28;20582;-49
2022/08/25 06:24:10;;;;;;;8.07;6.23;;;22.20;99.90;;;;;;5087722;28;20527;-57
2022/08/25 06:26:40;;;;;;;7.67;6.97;;;22.50;99.90;;;;;;5081655;28;20465;-51
2022/08/25 06:29:07;;;;;;;8.00;7.00;;;22.80;99.90;;;;;;5096313;28;20936;-50
2022/08/25 06:31:36;;;;;;;6.50;5.90;;;23.30;99.90;;;;;;5096025;28;20463;-49
2022/08/25 06:34:05;;;;;;;6.90;6.30;;;23.70;99.90;;;;;;5096326;28;20468;-54
2022/08/25 06:36:33;;;;;;;7.70;7.00;;;24.00;99.90;;;;;;5095801;28;20465;-53
2022/08/25 06:39:02;;;;;;;7.03;6.33;;;24.10;99.90;;;;;;5076109;28;20461;-51
2022/08/25 06:41:33;;;;;;;10.83;6.10;;;24.30;99.90;;;;;;5081628;28;20551;-51
2022/08/25 06:44:00;;;;;;;7.80;6.43;;;24.50;99.90;;;;;;5096653;28;20527;-50
2022/08/25 06:46:29;;;;;;;7.63;6.40;;;24.70;99.90;;;;;;5096210;28;20498;-52
2022/08/25 06:48:59;;;;;;;7.17;6.47;;;24.80;99.90;;;;;;5095655;28;20464;-52
2022/08/25 06:51:30;;;;;;;6.43;5.83;;;24.90;99.90;;;;;;5096685;28;20464;-54
2022/08/25 06:54:04;;;;;;;7.50;6.53;;;25.20;99.90;;;;;;5097568;28;20510;-54
2022/08/25 06:56:34;;;;;;;6.67;6.07;;;25.50;99.90;;;;;;5096690;28;20467;-51
2022/08/25 06:59:02;;;;;;;7.53;6.90;;;25.80;99.90;;;;;;5096097;28;20471;-50
2022/08/25 07:01:30;;;;;;;6.73;5.97;;;26.20;99.90;;;;;;5097164;28;20486;-50
2022/08/25 07:04:03;;;;;;;6.23;5.63;;;26.30;99.90;;;;;;5096465;28;20574;-49
2022/08/25 07:06:40;;;;;;;6.83;6.23;;;26.60;99.90;;;;;;5099218;28;20854;-51
2022/08/25 07:09:09;;;;;;;7.97;6.27;;;26.60;99.90;;;;;;5100174;28;20506;-50
2022/08/25 07:11:44;;;;;;;7.07;6.47;;;26.70;99.90;;;;;;5101064;28;20460;-58
2022/08/25 07:14:13;;;;;;;6.93;5.90;;;26.90;99.90;;;;;;5099676;28;20456;-49
2022/08/25 07:16:41;;;;;;;6.80;6.20;;;27.40;99.90;;;;;;5100572;28;20460;-49
2022/08/25 07:19:11;;;;;;;6.53;5.93;;;27.50;99.90;;;;;;5099949;28;20502;-52
2022/08/25 07:21:44;;;;;;;7.03;6.50;;;27.40;99.90;;;;;;5098730;28;20852;-55
2022/08/25 07:24:15;;;;;;;6.37;5.87;;;27.50;99.90;;;;;;5099493;28;20488;-51
2022/08/25 07:26:45;;;;;;;6.27;5.67;;;27.40;99.90;;;;;;5100048;28;20464;-58
2022/08/25 07:29:15;;;;;;;7.33;6.73;;;27.80;99.90;;;;;;5099449;28;20452;-52
2022/08/25 07:31:43;;;;;;;7.80;6.30;;;28.10;99.90;;;;;;5100228;28;20511;-54
2022/08/25 07:36:58;;;;;;;6.90;6.30;;;28.70;99.90;;;;;;5100058;28;20919;-51
2022/08/25 07:39:29;;;;;;;6.73;5.83;;;28.80;99.90;;;;;;5099704;28;20825;-50
2022/08/25 07:41:57;;;;;;;6.50;5.90;;;28.90;99.90;;;;;;5100801;28;20460;-58
2022/08/25 07:44:27;;;;;;;6.67;6.13;;;29.00;99.90;;;;;;5099769;28;20527;-55
2022/08/25 07:46:58;;;;;;;6.33;5.83;;;29.00;99.90;;;;;;5100058;28;20464;-51
2022/08/25 07:49:29;;;;;;;6.20;5.80;;;29.10;99.90;;;;;;5100394;28;20796;-55
2022/08/25 07:51:57;;;;;;;6.63;6.13;;;29.20;99.90;;;;;;5098722;28;20484;-56
2022/08/25 07:54:27;;;;;;;6.50;6.00;;;29.10;99.90;;;;;;5094770;28;20487;-55
2022/08/25 07:56:54;;;;;;;6.37;5.93;;;29.30;99.90;;;;;;5099901;28;20467;-56
2022/08/25 07:59:24;;;;;;;6.17;5.67;;;29.50;99.90;;;;;;5099691;28;20500;-58
2022/08/25 08:01:55;;;;;;;5.70;5.30;;;29.80;99.90;;;;;;5099743;28;20547;-59
2022/08/25 08:04:22;;;;;;;6.37;5.80;;;30.00;99.90;;;;;;5098779;28;20578;-57
2022/08/25 08:06:49;;;;;;;6.77;6.10;;;30.20;99.90;;;;;;5098654;28;20517;-54
2022/08/25 08:09:24;;;;;;;6.40;5.90;;;30.30;99.90;;;;;;5099954;28;20465;-57
2022/08/25 08:11:51;;;;;;;6.10;5.70;;;30.40;99.90;;;;;;5099610;28;20883;-58
2022/08/25 08:14:19;;;;;;;5.67;5.27;;;30.40;99.90;;;;;;5099773;28;20502;-53
2022/08/25 08:16:52;;;;;;;6.67;6.17;;;30.60;99.90;;;;;;5098110;28;20467;-52
2022/08/25 08:19:21;;;;;;;6.27;5.77;;;30.90;99.90;;;;;;5099100;28;20464;-55
2022/08/25 08:21:49;;;;;;;5.73;5.33;;;31.10;99.90;;;;;;5100015;28;20471;-52
2022/08/25 08:24:22;;;;;;;5.40;4.80;;;31.20;99.90;;;;;;5098698;28;20474;-55
2022/08/25 08:26:50;;;;;;;6.30;5.80;;;31.40;99.90;;;;;;5098504;28;20488;-57
2022/08/25 08:29:21;;;;;;;7.80;6.10;;;31.60;99.90;;;;;;5099077;28;20551;-57
2022/08/25 08:31:49;;;;;;;7.70;5.83;;;31.50;99.90;;;;;;5098059;28;20456;-54
2022/08/25 08:34:25;;;;;;;5.03;4.63;;;31.80;99.90;;;;;;5097859;28;20769;-58
2022/08/25 08:36:52;;;;;;;6.73;6.17;;;31.90;99.90;;;;;;5098528;28;20466;-55
2022/08/25 08:39:24;;;;;;;6.10;5.50;;;31.90;99.90;;;;;;5097695;28;20464;-58
2022/08/25 08:42:18;;;;;;;6.83;5.10;;;32.20;99.90;;;;;;5098545;28;20554;-57
2022/08/25 08:45:06;;;;;;;6.17;5.77;;;32.50;99.90;;;;;;5099020;28;20496;-57
2022/08/25 08:47:49;;;;;;;5.93;5.43;;;32.90;99.90;;;;;;5098678;28;20464;-56
2022/08/25 08:50:27;;;;;;;6.33;5.73;;;33.10;99.90;;;;;;5099052;28;20547;-59
2022/08/25 08:53:01;;;;;;;6.80;6.30;;;32.40;99.90;;;;;;5098253;28;20793;-55
2022/08/25 08:55:35;;;;;;;6.13;5.73;;;32.10;99.90;;;;;;5098427;28;20500;-57
2022/08/25 08:58:08;;;;;;;6.33;5.83;;;32.50;99.90;;;;;;5098347;28;20498;-58
2022/08/25 09:00:44;;;;;;;5.83;5.10;;;32.80;99.90;;;;;;5098925;28;20521;-56
2022/08/25 09:03:16;;;;;;;6.50;5.57;;;32.40;99.90;;;;;;5098643;28;20500;-54
2022/08/25 09:05:47;;;;;;;7.57;4.83;;;32.60;99.90;;;;;;5098676;28;20558;-55
2022/08/25 09:08:19;;;;;;;4.97;4.57;;;32.70;99.90;;;;;;5098552;28;20503;-54
2022/08/25 09:11:02;;;;;;;6.07;5.50;;;32.70;99.90;;;;;;5097968;28;20806;-58
2022/08/25 09:13:47;;;;;;;6.43;5.93;;;32.70;99.90;;;;;;5098580;28;20510;-59
2022/08/25 09:19:46;;;;;;;5.43;5.03;;;32.90;99.90;;;;;;5097405;28;20440;-55
2022/08/25 09:22:32;;;;;;;4.93;4.53;;;33.40;99.90;;;;;;5097686;28;20455;-59
2022/08/25 09:25:09;;;;;;;5.77;5.37;;;33.60;99.90;;;;;;5097739;28;20582;-57
2022/08/25 09:27:44;;;;;;;6.47;5.87;;;33.70;99.90;;;;;;5098668;28;20881;-59
2022/08/25 09:30:16;;;;;;;5.83;5.33;;;34.00;99.90;;;;;;5095839;28;20518;-57
2022/08/25 09:32:46;;;;;;;5.57;4.70;;;34.30;99.90;;;;;;5096931;28;20463;-57
2022/08/25 09:35:21;;;;;;;6.27;5.67;;;34.00;99.90;;;;;;5097310;28;20494;-59
2022/08/25 09:37:59;;;;;;;6.57;5.97;;;33.90;99.90;;;;;;5098177;28;20633;-58
2022/08/25 09:40:28;;;;;;;6.30;5.80;;;34.00;99.90;;;;;;5096968;28;20459;-59
2022/08/25 09:43:01;;;;;;;6.20;5.60;;;34.00;99.90;;;;;;5097635;28;20498;-58
2022/08/25 09:45:39;;;;;;;6.57;5.97;;;34.10;99.90;;;;;;5096642;28;20637;-58
2022/08/25 09:48:21;;;;;;;6.40;5.80;;;33.70;99.90;;;;;;5096116;28;20521;-58
2022/08/25 09:50:50;;;;;;;5.00;4.60;;;34.00;99.90;;;;;;5096572;28;20935;-56
2022/08/25 09:53:21;;;;;;;6.47;5.87;;;33.70;99.90;;;;;;5097808;28;20463;-59
2022/08/25 09:55:56;;;;;;;6.63;5.63;;;34.00;99.90;;;;;;5096963;28;20558;-58
2022/08/25 09:58:26;;;;;;;5.80;5.40;;;34.40;99.90;;;;;;5097722;28;20497;-56
2022/08/25 10:01:13;;;;;;;5.57;5.17;;;34.80;99.90;;;;;;5096967;28;20838;-55
2022/08/25 10:03:59;;;;;;;6.23;5.73;;;35.20;99.90;;;;;;5095453;28;20934;-58
2022/08/25 10:06:29;;;;;;;5.37;4.90;;;35.40;99.90;;;;;;5097192;28;20487;-54
2022/08/25 10:09:01;;;;;;;6.50;6.10;;;34.80;99.90;;;;;;5097109;28;20468;-57
2022/08/25 10:11:36;;;;;;;5.90;5.50;;;34.40;99.90;;;;;;5095540;28;20555;-57
2022/08/25 10:14:17;;;;;;;4.80;4.40;;;34.30;99.90;;;;;;5096877;28;20459;-58
2022/08/25 10:16:45;;;;;;;5.90;5.40;;;34.80;99.90;;;;;;5087553;28;20599;-59
2022/08/25 10:19:26;;;;;;;5.23;4.83;;;35.20;99.90;;;;;;5076608;28;20464;-59
2022/08/25 10:22:06;;;;;;;5.97;5.47;;;35.60;99.90;;;;;;5095873;28;20498;-59
2022/08/25 10:24:34;;;;;;;5.87;5.37;;;35.60;99.90;;;;;;5095344;28;20544;-56
2022/08/25 10:27:09;;;;;;;5.50;4.70;;;35.70;99.90;;;;;;5097297;28;20554;-59
2022/08/25 10:30:05;;;;;;;5.87;5.47;;;35.70;99.90;;;;;;5097339;28;20505;-59
2022/08/25 10:32:57;;;;;;;5.50;5.03;;;35.90;99.90;;;;;;5095749;28;20476;-58
2022/08/25 10:35:30;;;;;;;5.43;5.03;;;36.30;99.90;;;;;;5092949;28;20533;-59
2022/08/25 10:38:13;;;;;;;7.60;5.43;;;36.40;99.90;;;;;;5094329;28;20464;-58
2022/08/25 10:40:48;;;;;;;6.10;5.70;;;36.20;99.90;;;;;;5098828;28;20459;-58
2022/08/25 10:43:30;;;;;;;5.60;5.10;;;36.10;99.90;;;;;;5101526;28;20862;-59
2022/08/25 10:46:09;;;;;;;6.00;5.50;;;36.40;99.90;;;;;;5101163;28;20869;-59
2022/08/25 10:48:57;;;;;;;5.20;4.70;;;36.80;99.90;;;;;;5101341;28;20633;-58
2022/08/25 10:51:43;;;;;;;5.17;4.77;;;36.50;99.90;;;;;;5100991;28;20546;-58
2022/08/25 10:54:30;;;;;;;4.57;4.27;;;36.10;99.90;;;;;;5101089;28;20296;-57
2022/08/25 10:57:06;;;;;;;5.03;4.63;;;36.20;99.90;;;;;;5100677;28;20750;-58
2022/08/25 10:59:53;;;;;;;5.53;5.10;;;36.40;99.90;;;;;;5101074;28;20482;-59
2022/08/25 11:02:56;;;;;;;5.80;5.30;;;36.50;99.90;;;;;;5100845;28;20491;-60
2022/08/25 11:05:28;;;;;;;5.97;4.72;;;36.80;99.90;;;;;;5101116;28;20229;-59
2022/08/25 11:08:07;;;;;;;5.95;4.93;;;37.10;99.90;;;;;;5080764;28;20289;-58
2022/08/25 11:10:42;;;;;;;7.05;4.85;;;36.70;99.90;;;;;;5086815;28;20221;-59
2022/08/25 11:13:21;;;;;;;5.53;5.03;;;36.00;99.90;;;;;;5101231;28;20209;-57
2022/08/25 11:16:03;;;;;;;5.17;4.77;;;35.70;99.90;;;;;;5100677;28;20799;-59
2022/08/25 11:18:41;;;;;;;6.60;5.40;;;35.90;99.90;;;;;;5080328;28;20515;-55
2022/08/25 11:21:14;;;;;;;4.80;4.40;;;36.10;99.90;;;;;;5087473;28;20840;-55
2022/08/25 11:23:47;;;;;;;5.43;4.90;;;36.20;99.90;;;;;;5100463;28;20464;-58
2022/08/25 11:26:19;;;;;;;6.03;4.45;;;36.70;99.90;;;;;;5099150;28;20300;-59
2022/08/25 11:28:54;;;;;;;6.20;5.05;;;36.80;99.90;;;;;;5099380;28;20206;-56
2022/08/25 11:31:23;;;;;;;4.82;4.53;;;37.10;99.90;;;;;;5100033;28;20288;-57
2022/08/25 11:33:52;;;;;;;5.25;4.95;;;37.50;99.90;;;;;;5099862;28;20302;-60
2022/08/25 11:36:34;;;;;;;5.57;5.07;;;37.70;99.90;;;;;;5099708;28;20202;-60
2022/08/25 11:39:15;;;;;;;4.80;4.50;;;37.60;99.90;;;;;;5097546;28;20285;-59
2022/08/25 11:41:56;;;;;;;6.10;5.70;;;36.60;99.90;;;;;;5100455;28;20206;-60
2022/08/25 11:44:54;;;;;;;6.47;5.88;;;36.10;99.90;;;;;;5100204;28;20233;-60
2022/08/25 11:47:37;;;;;;;4.75;4.30;;;37.20;99.90;;;;;;5075278;28;20209;-60
2022/08/25 11:50:11;;;;;;;5.30;4.80;;;37.70;99.90;;;;;;5098578;28;20234;-58
2022/08/25 11:52:55;;;;;;;4.45;4.13;;;37.80;99.90;;;;;;5098781;28;20209;-57
2022/08/25 11:55:28;;;;;;;5.47;5.07;;;37.60;99.90;;;;;;5097035;28;20198;-60
2022/08/25 11:58:22;;;;;;;5.07;4.57;;;37.40;99.90;;;;;;5099521;28;20251;-56
2022/08/25 12:00:53;;;;;;;6.07;5.50;;;37.20;99.90;;;;;;5098709;28;20610;-60
2022/08/25 12:03:46;;;;;;;5.68;5.28;;;36.50;99.90;;;;;;5099938;28;20202;-57
2022/08/25 12:06:23;;;;;;;5.35;5.05;;;37.00;99.90;;;;;;5097874;28;20628;-59
2022/08/25 12:09:12;;;;;;;5.15;4.85;;;37.20;99.90;;;;;;5097441;28;20225;-60
2022/08/25 12:11:57;;;;;;;7.88;4.90;;;37.50;99.90;;;;;;5098286;28;20577;-58
2022/08/25 12:14:44;;;;;;;5.85;5.45;;;37.30;99.90;;;;;;5097500;28;20198;-58
2022/08/25 12:17:25;;;;;;;5.43;5.03;;;36.10;99.90;;;;;;5099079;28;20205;-60
2022/08/25 12:19:58;;;;;;;5.18;4.88;;;36.60;99.90;;;;;;5097213;28;20737;-60
2022/08/25 12:22:57;;;;;;;5.03;4.63;;;37.30;99.90;;;;;;5096875;28;20289;-60
2022/08/25 12:25:47;;;;;;;6.22;4.97;;;38.00;99.90;;;;;;5098423;28;20218;-59
2022/08/25 12:28:51;;;;;;;5.60;5.10;;;37.80;99.90;;;;;;5098357;28;20213;-60
2022/08/25 12:32:01;;;;;;;5.63;5.22;;;37.80;99.90;;;;;;5035110;28;20301;-60
2022/08/25 12:34:56;;;;;;;5.05;4.70;;;37.90;99.90;;;;;;5025942;28;20200;-57
2022/08/25 12:37:25;;;;;;;5.15;4.70;;;38.20;99.90;;;;;;5057260;28;20207;-59
2022/08/25 12:40:02;;;;;;;6.18;5.68;;;37.70;99.90;;;;;;5079251;28;20210;-58
2022/08/25 12:42:33;;;;;;;5.15;4.82;;;37.70;99.90;;;;;;5098489;28;20205;-57
2022/08/25 12:45:14;;;;;;;5.13;4.82;;;37.70;99.90;;;;;;5098203;28;20275;-58
2022/08/25 12:47:46;;;;;;;4.55;4.25;;;37.60;99.90;;;;;;5098215;28;20202;-60
2022/08/25 12:50:32;;;;;;;5.15;4.75;;;37.20;99.90;;;;;;5099181;28;20206;-60
2022/08/25 12:53:11;;;;;;;5.03;4.73;;;37.20;99.90;;;;;;5110795;28;20503;-59
2022/08/25 12:55:46;;;;;;;4.93;4.53;;;37.10;99.90;;;;;;5116540;28;20524;-59
2022/08/25 12:58:13;;;;;;;5.28;4.78;;;37.50;99.90;;;;;;5103739;28;20240;-60
2022/08/25 13:01:04;;;;;;;4.53;4.22;;;38.00;99.90;;;;;;5098293;28;20206;-55
2022/08/25 13:03:51;;;;;;;5.15;4.85;;;38.20;99.90;;;;;;5098414;28;20271;-59
2022/08/25 13:06:45;;;;;;;4.75;4.45;;;37.70;99.90;;;;;;5098424;28;20225;-56
2022/08/25 13:10:03;;;;;;;4.57;4.27;;;37.30;99.90;;;;;;5098193;28;20248;-58
2022/08/25 13:12:45;;;;;;;4.53;4.23;;;36.30;99.90;;;;;;5078019;28;20241;-54
2022/08/25 13:15:28;;;;;;;5.17;4.77;;;36.00;99.90;;;;;;5098259;28;20480;-55
2022/08/25 13:18:18;;;;;;;4.77;4.37;;;36.30;99.90;;;;;;5098094;28;20456;-59
2022/08/25 13:20:47;;;;;;;4.50;4.00;;;37.10;99.90;;;;;;5097309;28;20590;-58
2022/08/25 13:23:27;;;;;;;11.73;5.87;;;37.70;99.90;;;;;;5098373;28;20459;-57
2022/08/25 13:26:02;;;;;;;4.80;4.50;;;38.00;99.90;;;;;;5097854;28;20453;-57